sensor_id;sensor_type;location;lat;lon;timestamp;temperature;humidity
506;DHT22;551;48.524;9.056;2023-04-06T00:03:03;3.10;1.00
506;DHT22;551;48.524;9.056;2023-04-06T00:05:28;3.10;1.00
506;DHT22;551;48.524;9.056;2023-04-06T00:07:59;3.00;1.00
506;DHT22;551;48.524;9.056;2023-04-06T00:10:24;2.90;1.00
506;DHT22;551;48.524;9.056;2023-04-06T00:12:50;2.80;1.00
506;DHT22;551;48.524;9.056;2023-04-06T00:15:16;2.80;1.00
506;DHT22;551;48.524;9.056;2023-04-06T00:17:41;2.70;1.00
506;DHT22;551;48.524;9.056;2023-04-06T00:20:07;2.60;1.00
506;DHT22;551;48.524;9.056;2023-04-06T00:22:33;2.60;1.00
506;DHT22;551;48.524;9.056;2023-04-06T00:24:59;2.50;1.00
506;DHT22;551;48.524;9.056;2023-04-06T00:27:24;2.40;1.00
506;DHT22;551;48.524;9.056;2023-04-06T00:29:50;2.40;1.00
506;DHT22;551;48.524;9.056;2023-04-06T00:32:15;2.40;1.00
506;DHT22;551;48.524;9.056;2023-04-06T00:34:41;2.40;1.00
506;DHT22;551;48.524;9.056;2023-04-06T00:37:06;2.40;1.00
506;DHT22;551;48.524;9.056;2023-04-06T00:39:32;2.40;1.00
506;DHT22;551;48.524;9.056;2023-04-06T00:41:57;2.30;1.00
506;DHT22;551;48.524;9.056;2023-04-06T00:44:24;2.30;1.00
506;DHT22;551;48.524;9.056;2023-04-06T00:46:50;2.20;1.00
506;DHT22;551;48.524;9.056;2023-04-06T00:49:15;2.30;1.00
506;DHT22;551;48.524;9.056;2023-04-06T00:51:41;2.20;1.00
506;DHT22;551;48.524;9.056;2023-04-06T00:54:06;2.20;1.00
506;DHT22;551;48.524;9.056;2023-04-06T00:56:32;2.20;1.00
506;DHT22;551;48.524;9.056;2023-04-06T00:58:58;2.10;1.00
506;DHT22;551;48.524;9.056;2023-04-06T01:01:24;2.00;1.00
506;DHT22;551;48.524;9.056;2023-04-06T01:03:50;2.00;1.00
506;DHT22;551;48.524;9.056;2023-04-06T01:06:15;1.90;1.00
506;DHT22;551;48.524;9.056;2023-04-06T01:08:41;1.80;1.00
506;DHT22;551;48.524;9.056;2023-04-06T01:11:07;1.70;1.00
506;DHT22;551;48.524;9.056;2023-04-06T01:13:32;1.70;1.00
506;DHT22;551;48.524;9.056;2023-04-06T01:15:58;1.70;1.00
506;DHT22;551;48.524;9.056;2023-04-06T01:18:28;1.70;1.00
506;DHT22;551;48.524;9.056;2023-04-06T01:20:54;1.60;1.00
506;DHT22;551;48.524;9.056;2023-04-06T01:23:19;1.50;1.00
506;DHT22;551;48.524;9.056;2023-04-06T01:25:45;1.50;1.00
506;DHT22;551;48.524;9.056;2023-04-06T01:28:11;1.50;1.00
506;DHT22;551;48.524;9.056;2023-04-06T01:30:36;1.50;1.00
506;DHT22;551;48.524;9.056;2023-04-06T01:33:02;1.50;1.00
506;DHT22;551;48.524;9.056;2023-04-06T01:35:28;1.50;1.00
506;DHT22;551;48.524;9.056;2023-04-06T01:37:54;1.40;1.00
506;DHT22;551;48.524;9.056;2023-04-06T01:40:20;1.40;1.00
506;DHT22;551;48.524;9.056;2023-04-06T01:42:46;1.40;1.00
506;DHT22;551;48.524;9.056;2023-04-06T01:45:17;1.40;1.00
506;DHT22;551;48.524;9.056;2023-04-06T01:47:43;1.40;1.00
506;DHT22;551;48.524;9.056;2023-04-06T01:50:12;1.30;1.00
506;DHT22;551;48.524;9.056;2023-04-06T01:52:37;1.30;1.00
506;DHT22;551;48.524;9.056;2023-04-06T01:55:03;1.30;1.00
506;DHT22;551;48.524;9.056;2023-04-06T01:57:29;1.30;1.00
506;DHT22;551;48.524;9.056;2023-04-06T01:59:54;1.30;1.00
506;DHT22;551;48.524;9.056;2023-04-06T02:02:20;1.40;1.00
506;DHT22;551;48.524;9.056;2023-04-06T02:04:45;1.30;1.00
506;DHT22;551;48.524;9.056;2023-04-06T02:07:11;1.30;1.00
506;DHT22;551;48.524;9.056;2023-04-06T02:09:36;1.40;1.00
506;DHT22;551;48.524;9.056;2023-04-06T02:12:02;1.40;1.00
506;DHT22;551;48.524;9.056;2023-04-06T02:14:28;1.30;1.00
506;DHT22;551;48.524;9.056;2023-04-06T02:16:53;1.20;1.00
506;DHT22;551;48.524;9.056;2023-04-06T02:19:19;1.10;1.00
506;DHT22;551;48.524;9.056;2023-04-06T02:21:44;1.10;1.00
506;DHT22;551;48.524;9.056;2023-04-06T02:24:10;1.00;1.00
506;DHT22;551;48.524;9.056;2023-04-06T02:26:36;1.00;1.00
506;DHT22;551;48.524;9.056;2023-04-06T02:29:01;0.90;1.00
506;DHT22;551;48.524;9.056;2023-04-06T02:31:27;0.90;1.00
506;DHT22;551;48.524;9.056;2023-04-06T02:33:53;0.80;1.00
506;DHT22;551;48.524;9.056;2023-04-06T02:36:18;0.90;1.00
506;DHT22;551;48.524;9.056;2023-04-06T02:38:44;0.90;1.00
506;DHT22;551;48.524;9.056;2023-04-06T02:41:09;0.90;1.00
506;DHT22;551;48.524;9.056;2023-04-06T02:43:35;0.80;1.00
506;DHT22;551;48.524;9.056;2023-04-06T02:46:00;0.70;1.00
506;DHT22;551;48.524;9.056;2023-04-06T02:48:26;0.70;1.00
506;DHT22;551;48.524;9.056;2023-04-06T02:50:51;0.70;1.00
506;DHT22;551;48.524;9.056;2023-04-06T02:53:17;0.70;1.00
506;DHT22;551;48.524;9.056;2023-04-06T02:55:42;0.60;1.00
506;DHT22;551;48.524;9.056;2023-04-06T02:58:08;0.60;1.00
506;DHT22;551;48.524;9.056;2023-04-06T03:00:33;0.50;1.00
506;DHT22;551;48.524;9.056;2023-04-06T03:02:59;0.50;1.00
506;DHT22;551;48.524;9.056;2023-04-06T03:05:24;0.50;1.00
506;DHT22;551;48.524;9.056;2023-04-06T03:07:50;0.40;1.00
506;DHT22;551;48.524;9.056;2023-04-06T03:10:15;0.40;1.00
506;DHT22;551;48.524;9.056;2023-04-06T03:12:41;0.40;1.00
506;DHT22;551;48.524;9.056;2023-04-06T03:15:07;0.30;1.00
506;DHT22;551;48.524;9.056;2023-04-06T03:17:33;0.30;1.00
506;DHT22;551;48.524;9.056;2023-04-06T03:19:58;0.30;1.00
506;DHT22;551;48.524;9.056;2023-04-06T03:22:24;0.30;1.00
506;DHT22;551;48.524;9.056;2023-04-06T03:24:50;0.30;1.00
506;DHT22;551;48.524;9.056;2023-04-06T03:27:15;0.20;1.00
506;DHT22;551;48.524;9.056;2023-04-06T03:29:41;0.30;1.00
506;DHT22;551;48.524;9.056;2023-04-06T03:32:06;0.20;1.00
506;DHT22;551;48.524;9.056;2023-04-06T03:34:32;0.20;1.00
506;DHT22;551;48.524;9.056;2023-04-06T03:36:57;0.20;1.00
506;DHT22;551;48.524;9.056;2023-04-06T03:39:23;0.20;1.00
506;DHT22;551;48.524;9.056;2023-04-06T03:41:48;0.20;1.00
506;DHT22;551;48.524;9.056;2023-04-06T03:44:14;0.20;1.00
506;DHT22;551;48.524;9.056;2023-04-06T03:46:40;0.10;1.00
506;DHT22;551;48.524;9.056;2023-04-06T03:49:05;0.10;1.00
506;DHT22;551;48.524;9.056;2023-04-06T03:51:31;0.10;1.00
506;DHT22;551;48.524;9.056;2023-04-06T03:53:56;0.20;1.00
506;DHT22;551;48.524;9.056;2023-04-06T03:56:22;0.20;1.00
506;DHT22;551;48.524;9.056;2023-04-06T03:58:47;0.20;1.00
506;DHT22;551;48.524;9.056;2023-04-06T04:01:18;0.20;1.00
506;DHT22;551;48.524;9.056;2023-04-06T04:03:44;0.10;1.00
506;DHT22;551;48.524;9.056;2023-04-06T04:06:09;0.10;1.00
506;DHT22;551;48.524;9.056;2023-04-06T04:08:35;0.00;1.00
506;DHT22;551;48.524;9.056;2023-04-06T04:11:01;0.10;1.00
506;DHT22;551;48.524;9.056;2023-04-06T04:13:26;0.10;1.00
506;DHT22;551;48.524;9.056;2023-04-06T04:15:52;0.00;1.00
506;DHT22;551;48.524;9.056;2023-04-06T04:18:18;0.00;1.00
506;DHT22;551;48.524;9.056;2023-04-06T04:20:44;0.00;1.00
506;DHT22;551;48.524;9.056;2023-04-06T04:23:10;0.00;1.00
506;DHT22;551;48.524;9.056;2023-04-06T04:25:35;-0.10;1.00
506;DHT22;551;48.524;9.056;2023-04-06T04:28:02;-0.10;1.00
506;DHT22;551;48.524;9.056;2023-04-06T04:30:27;-0.10;1.00
506;DHT22;551;48.524;9.056;2023-04-06T04:32:53;-0.10;1.00
506;DHT22;551;48.524;9.056;2023-04-06T04:35:18;-0.10;1.00
506;DHT22;551;48.524;9.056;2023-04-06T04:37:44;-0.10;1.00
506;DHT22;551;48.524;9.056;2023-04-06T04:40:10;-0.10;1.00
506;DHT22;551;48.524;9.056;2023-04-06T04:42:36;0.00;1.00
506;DHT22;551;48.524;9.056;2023-04-06T04:45:01;0.00;1.00
506;DHT22;551;48.524;9.056;2023-04-06T04:47:27;0.00;1.00
506;DHT22;551;48.524;9.056;2023-04-06T04:49:52;0.00;1.00
506;DHT22;551;48.524;9.056;2023-04-06T04:52:18;0.00;1.00
506;DHT22;551;48.524;9.056;2023-04-06T04:54:43;0.00;1.00
506;DHT22;551;48.524;9.056;2023-04-06T04:57:09;0.00;1.00
506;DHT22;551;48.524;9.056;2023-04-06T04:59:35;0.00;1.00
506;DHT22;551;48.524;9.056;2023-04-06T05:02:00;0.00;1.00
506;DHT22;551;48.524;9.056;2023-04-06T05:04:26;0.10;1.00
506;DHT22;551;48.524;9.056;2023-04-06T05:07:03;0.10;1.00
506;DHT22;551;48.524;9.056;2023-04-06T05:09:29;0.20;1.00
506;DHT22;551;48.524;9.056;2023-04-06T05:11:56;0.20;1.00
506;DHT22;551;48.524;9.056;2023-04-06T05:14:22;0.20;1.00
506;DHT22;551;48.524;9.056;2023-04-06T05:16:48;0.30;1.00
506;DHT22;551;48.524;9.056;2023-04-06T05:19:13;0.30;1.00
506;DHT22;551;48.524;9.056;2023-04-06T05:21:39;0.30;1.00
506;DHT22;551;48.524;9.056;2023-04-06T05:24:04;0.40;1.00
506;DHT22;551;48.524;9.056;2023-04-06T05:26:30;0.40;1.00
506;DHT22;551;48.524;9.056;2023-04-06T05:28:55;0.50;1.00
506;DHT22;551;48.524;9.056;2023-04-06T05:31:21;0.50;1.00
506;DHT22;551;48.524;9.056;2023-04-06T05:33:46;0.60;1.00
506;DHT22;551;48.524;9.056;2023-04-06T05:36:12;0.60;1.00
506;DHT22;551;48.524;9.056;2023-04-06T05:38:38;0.70;1.00
506;DHT22;551;48.524;9.056;2023-04-06T05:41:03;0.80;1.00
506;DHT22;551;48.524;9.056;2023-04-06T05:43:29;0.90;1.00
506;DHT22;551;48.524;9.056;2023-04-06T05:45:54;1.10;1.00
506;DHT22;551;48.524;9.056;2023-04-06T05:48:20;1.30;1.00
506;DHT22;551;48.524;9.056;2023-04-06T05:50:49;1.60;1.00
506;DHT22;551;48.524;9.056;2023-04-06T05:53:18;1.80;1.00
506;DHT22;551;48.524;9.056;2023-04-06T05:55:46;2.50;1.00
506;DHT22;551;48.524;9.056;2023-04-06T06:00:37;3.60;1.00
506;DHT22;551;48.524;9.056;2023-04-06T06:03:03;4.10;1.00
506;DHT22;551;48.524;9.056;2023-04-06T06:05:34;4.50;1.00
506;DHT22;551;48.524;9.056;2023-04-06T06:07:59;5.40;1.00
506;DHT22;551;48.524;9.056;2023-04-06T06:10:27;6.10;1.00
506;DHT22;551;48.524;9.056;2023-04-06T06:12:53;6.70;1.00
506;DHT22;551;48.524;9.056;2023-04-06T06:17:44;6.60;1.00
506;DHT22;551;48.524;9.056;2023-04-06T06:20:10;6.50;1.00
506;DHT22;551;48.524;9.056;2023-04-06T06:22:36;6.40;1.00
506;DHT22;551;48.524;9.056;2023-04-06T06:25:02;6.70;1.00
506;DHT22;551;48.524;9.056;2023-04-06T06:27:27;6.60;1.00
506;DHT22;551;48.524;9.056;2023-04-06T06:29:53;6.70;1.00
506;DHT22;551;48.524;9.056;2023-04-06T06:32:18;7.50;1.00
506;DHT22;551;48.524;9.056;2023-04-06T06:34:44;8.40;1.00
506;DHT22;551;48.524;9.056;2023-04-06T06:42:02;12.20;1.00
506;DHT22;551;48.524;9.056;2023-04-06T06:44:28;13.60;1.00
506;DHT22;551;48.524;9.056;2023-04-06T06:46:53;14.60;1.00
506;DHT22;551;48.524;9.056;2023-04-06T06:49:19;15.10;1.00
506;DHT22;551;48.524;9.056;2023-04-06T06:54:12;15.50;1.00
506;DHT22;551;48.524;9.056;2023-04-06T06:56:38;15.60;1.00
506;DHT22;551;48.524;9.056;2023-04-06T06:59:04;14.70;1.00
506;DHT22;551;48.524;9.056;2023-04-06T07:01:32;13.20;1.00
506;DHT22;551;48.524;9.056;2023-04-06T07:03:58;12.60;1.00
506;DHT22;551;48.524;9.056;2023-04-06T07:06:23;12.70;1.00
506;DHT22;551;48.524;9.056;2023-04-06T07:08:49;13.80;1.00
506;DHT22;551;48.524;9.056;2023-04-06T07:11:14;14.90;1.00
506;DHT22;551;48.524;9.056;2023-04-06T07:13:40;16.20;1.00
506;DHT22;551;48.524;9.056;2023-04-06T07:16:05;17.80;1.00
506;DHT22;551;48.524;9.056;2023-04-06T07:18:31;18.80;1.00
506;DHT22;551;48.524;9.056;2023-04-06T07:20:56;19.70;1.00
506;DHT22;551;48.524;9.056;2023-04-06T07:23:22;20.70;1.00
506;DHT22;551;48.524;9.056;2023-04-06T07:25:48;21.40;1.00
506;DHT22;551;48.524;9.056;2023-04-06T07:28:16;21.60;1.00
506;DHT22;551;48.524;9.056;2023-04-06T07:30:42;22.10;1.00
506;DHT22;551;48.524;9.056;2023-04-06T07:33:07;23.00;1.00
506;DHT22;551;48.524;9.056;2023-04-06T07:35:33;23.40;1.00
506;DHT22;551;48.524;9.056;2023-04-06T07:38:00;24.00;1.00
506;DHT22;551;48.524;9.056;2023-04-06T07:40:25;24.00;1.00
506;DHT22;551;48.524;9.056;2023-04-06T07:42:52;24.00;1.00
506;DHT22;551;48.524;9.056;2023-04-06T07:45:18;24.20;1.00
506;DHT22;551;48.524;9.056;2023-04-06T07:47:43;25.30;1.00
506;DHT22;551;48.524;9.056;2023-04-06T07:50:09;25.90;1.00
506;DHT22;551;48.524;9.056;2023-04-06T07:52:35;26.20;1.00
506;DHT22;551;48.524;9.056;2023-04-06T07:57:27;27.60;1.00
506;DHT22;551;48.524;9.056;2023-04-06T07:59:52;28.20;1.00
506;DHT22;551;48.524;9.056;2023-04-06T08:02:18;27.50;1.00
506;DHT22;551;48.524;9.056;2023-04-06T08:04:44;27.10;1.00
506;DHT22;551;48.524;9.056;2023-04-06T08:07:09;27.30;1.00
506;DHT22;551;48.524;9.056;2023-04-06T08:09:35;27.40;1.00
506;DHT22;551;48.524;9.056;2023-04-06T08:12:00;27.70;1.00
506;DHT22;551;48.524;9.056;2023-04-06T08:14:26;28.00;1.00
506;DHT22;551;48.524;9.056;2023-04-06T08:16:52;28.70;1.00
506;DHT22;551;48.524;9.056;2023-04-06T08:19:17;28.80;1.00
506;DHT22;551;48.524;9.056;2023-04-06T08:21:46;28.60;1.00
506;DHT22;551;48.524;9.056;2023-04-06T08:24:12;28.30;1.00
506;DHT22;551;48.524;9.056;2023-04-06T08:26:38;27.90;1.00
506;DHT22;551;48.524;9.056;2023-04-06T08:29:04;27.50;1.00
506;DHT22;551;48.524;9.056;2023-04-06T08:31:35;28.10;1.00
506;DHT22;551;48.524;9.056;2023-04-06T08:34:02;28.70;1.00
506;DHT22;551;48.524;9.056;2023-04-06T08:36:28;29.30;1.00
506;DHT22;551;48.524;9.056;2023-04-06T08:38:54;29.80;1.00
506;DHT22;551;48.524;9.056;2023-04-06T08:41:20;30.20;1.00
506;DHT22;551;48.524;9.056;2023-04-06T08:44:02;29.80;1.00
506;DHT22;551;48.524;9.056;2023-04-06T08:46:29;30.40;1.00
506;DHT22;551;48.524;9.056;2023-04-06T08:49:02;30.30;1.00
506;DHT22;551;48.524;9.056;2023-04-06T08:51:29;29.80;1.00
506;DHT22;551;48.524;9.056;2023-04-06T08:53:57;30.10;1.00
506;DHT22;551;48.524;9.056;2023-04-06T08:56:23;31.40;1.00
506;DHT22;551;48.524;9.056;2023-04-06T08:58:49;30.80;1.00
506;DHT22;551;48.524;9.056;2023-04-06T09:01:17;30.90;1.00
506;DHT22;551;48.524;9.056;2023-04-06T09:03:43;30.30;1.00
506;DHT22;551;48.524;9.056;2023-04-06T09:06:10;30.90;1.00
506;DHT22;551;48.524;9.056;2023-04-06T09:08:39;31.10;1.00
506;DHT22;551;48.524;9.056;2023-04-06T09:11:05;32.20;1.00
506;DHT22;551;48.524;9.056;2023-04-06T09:13:31;32.20;1.00
506;DHT22;551;48.524;9.056;2023-04-06T09:16:04;32.80;1.00
506;DHT22;551;48.524;9.056;2023-04-06T09:18:32;32.60;1.00
506;DHT22;551;48.524;9.056;2023-04-06T09:21:02;32.40;1.00
506;DHT22;551;48.524;9.056;2023-04-06T09:23:28;31.70;1.00
506;DHT22;551;48.524;9.056;2023-04-06T09:26:12;30.30;1.00
506;DHT22;551;48.524;9.056;2023-04-06T09:28:45;30.00;1.00
506;DHT22;551;48.524;9.056;2023-04-06T09:31:13;29.90;1.00
506;DHT22;551;48.524;9.056;2023-04-06T09:33:40;31.10;1.00
506;DHT22;551;48.524;9.056;2023-04-06T09:36:06;32.70;1.00
506;DHT22;551;48.524;9.056;2023-04-06T09:38:32;33.30;1.00
506;DHT22;551;48.524;9.056;2023-04-06T09:40:58;32.80;1.00
506;DHT22;551;48.524;9.056;2023-04-06T09:43:28;32.30;1.00
506;DHT22;551;48.524;9.056;2023-04-06T09:45:55;32.60;1.00
506;DHT22;551;48.524;9.056;2023-04-06T09:48:21;32.10;1.00
506;DHT22;551;48.524;9.056;2023-04-06T09:50:54;33.40;1.00
506;DHT22;551;48.524;9.056;2023-04-06T09:53:26;33.90;1.00
506;DHT22;551;48.524;9.056;2023-04-06T09:55:55;32.90;1.00
506;DHT22;551;48.524;9.056;2023-04-06T09:58:23;33.70;1.00
506;DHT22;551;48.524;9.056;2023-04-06T10:01:11;34.30;1.00
506;DHT22;551;48.524;9.056;2023-04-06T10:03:47;33.10;1.00
506;DHT22;551;48.524;9.056;2023-04-06T10:06:19;32.00;1.00
506;DHT22;551;48.524;9.056;2023-04-06T10:08:47;32.40;1.00
506;DHT22;551;48.524;9.056;2023-04-06T10:11:15;32.50;1.00
506;DHT22;551;48.524;9.056;2023-04-06T10:13:41;33.10;1.00
506;DHT22;551;48.524;9.056;2023-04-06T10:16:08;33.40;1.00
506;DHT22;551;48.524;9.056;2023-04-06T10:18:33;33.40;1.00
506;DHT22;551;48.524;9.056;2023-04-06T10:21:14;32.60;1.00
506;DHT22;551;48.524;9.056;2023-04-06T10:24:20;32.60;1.00
506;DHT22;551;48.524;9.056;2023-04-06T10:26:39;33.00;1.00
506;DHT22;551;48.524;9.056;2023-04-06T10:29:05;32.60;1.00
506;DHT22;551;48.524;9.056;2023-04-06T10:31:31;31.70;1.00
506;DHT22;551;48.524;9.056;2023-04-06T10:33:59;31.30;1.00
506;DHT22;551;48.524;9.056;2023-04-06T10:36:35;31.00;1.00
506;DHT22;551;48.524;9.056;2023-04-06T10:39:05;31.60;1.00
506;DHT22;551;48.524;9.056;2023-04-06T10:41:51;32.10;1.00
506;DHT22;551;48.524;9.056;2023-04-06T10:44:21;31.70;1.00
506;DHT22;551;48.524;9.056;2023-04-06T10:46:58;31.70;1.00
506;DHT22;551;48.524;9.056;2023-04-06T10:49:26;31.00;1.00
506;DHT22;551;48.524;9.056;2023-04-06T10:51:53;30.90;1.00
506;DHT22;551;48.524;9.056;2023-04-06T10:54:21;30.70;1.00
506;DHT22;551;48.524;9.056;2023-04-06T10:56:47;31.10;1.00
506;DHT22;551;48.524;9.056;2023-04-06T10:59:14;31.10;1.00
506;DHT22;551;48.524;9.056;2023-04-06T11:01:44;30.80;1.00
506;DHT22;551;48.524;9.056;2023-04-06T11:04:15;30.50;1.00
506;DHT22;551;48.524;9.056;2023-04-06T11:06:41;30.80;1.00
506;DHT22;551;48.524;9.056;2023-04-06T11:09:11;30.60;1.00
506;DHT22;551;48.524;9.056;2023-04-06T11:11:38;29.90;1.00
506;DHT22;551;48.524;9.056;2023-04-06T11:14:04;29.50;1.00
506;DHT22;551;48.524;9.056;2023-04-06T11:16:31;29.50;1.00
506;DHT22;551;48.524;9.056;2023-04-06T11:19:04;30.00;1.00
506;DHT22;551;48.524;9.056;2023-04-06T11:24:22;29.10;1.00
506;DHT22;551;48.524;9.056;2023-04-06T11:26:50;29.30;1.00
506;DHT22;551;48.524;9.056;2023-04-06T11:29:24;29.50;1.00
506;DHT22;551;48.524;9.056;2023-04-06T11:31:51;29.40;1.00
506;DHT22;551;48.524;9.056;2023-04-06T11:34:24;29.50;1.00
506;DHT22;551;48.524;9.056;2023-04-06T11:37:01;29.60;1.00
506;DHT22;551;48.524;9.056;2023-04-06T11:39:28;29.40;1.00
506;DHT22;551;48.524;9.056;2023-04-06T11:41:59;29.20;1.00
506;DHT22;551;48.524;9.056;2023-04-06T11:44:43;29.00;1.00
506;DHT22;551;48.524;9.056;2023-04-06T11:47:12;28.70;1.00
506;DHT22;551;48.524;9.056;2023-04-06T11:49:40;28.60;1.00
506;DHT22;551;48.524;9.056;2023-04-06T11:52:20;28.30;1.00
506;DHT22;551;48.524;9.056;2023-04-06T11:54:47;28.20;1.00
506;DHT22;551;48.524;9.056;2023-04-06T11:57:13;28.30;1.00
506;DHT22;551;48.524;9.056;2023-04-06T11:59:39;28.10;1.00
506;DHT22;551;48.524;9.056;2023-04-06T12:02:05;28.10;1.00
506;DHT22;551;48.524;9.056;2023-04-06T12:04:31;27.50;1.00
506;DHT22;551;48.524;9.056;2023-04-06T12:06:57;27.60;1.00
506;DHT22;551;48.524;9.056;2023-04-06T12:09:22;28.00;1.00
506;DHT22;551;48.524;9.056;2023-04-06T12:11:48;28.50;1.00
506;DHT22;551;48.524;9.056;2023-04-06T12:14:14;28.60;1.00
506;DHT22;551;48.524;9.056;2023-04-06T12:16:40;27.70;1.00
506;DHT22;551;48.524;9.056;2023-04-06T12:19:06;27.30;1.00
506;DHT22;551;48.524;9.056;2023-04-06T12:21:32;27.00;1.00
506;DHT22;551;48.524;9.056;2023-04-06T12:23:59;27.30;1.00
506;DHT22;551;48.524;9.056;2023-04-06T12:26:25;27.30;1.00
506;DHT22;551;48.524;9.056;2023-04-06T12:28:51;27.50;1.00
506;DHT22;551;48.524;9.056;2023-04-06T12:31:18;26.90;1.00
506;DHT22;551;48.524;9.056;2023-04-06T12:33:47;26.70;1.00
506;DHT22;551;48.524;9.056;2023-04-06T12:36:19;26.90;1.00
506;DHT22;551;48.524;9.056;2023-04-06T12:38:49;27.20;1.00
506;DHT22;551;48.524;9.056;2023-04-06T12:41:16;27.40;1.00
506;DHT22;551;48.524;9.056;2023-04-06T12:43:43;27.50;1.00
506;DHT22;551;48.524;9.056;2023-04-06T12:46:09;28.00;1.00
506;DHT22;551;48.524;9.056;2023-04-06T12:48:36;27.80;1.00
506;DHT22;551;48.524;9.056;2023-04-06T12:51:05;28.00;1.00
506;DHT22;551;48.524;9.056;2023-04-06T12:53:32;28.70;1.00
506;DHT22;551;48.524;9.056;2023-04-06T12:55:58;28.40;1.00
506;DHT22;551;48.524;9.056;2023-04-06T12:58:24;28.40;1.00
506;DHT22;551;48.524;9.056;2023-04-06T13:00:53;28.80;1.00
506;DHT22;551;48.524;9.056;2023-04-06T13:03:21;28.60;1.00
506;DHT22;551;48.524;9.056;2023-04-06T13:05:51;28.40;1.00
506;DHT22;551;48.524;9.056;2023-04-06T13:08:19;28.40;1.00
506;DHT22;551;48.524;9.056;2023-04-06T13:10:50;28.70;1.00
506;DHT22;551;48.524;9.056;2023-04-06T13:13:21;28.30;1.00
506;DHT22;551;48.524;9.056;2023-04-06T13:15:47;27.80;1.00
506;DHT22;551;48.524;9.056;2023-04-06T13:18:12;27.50;1.00
506;DHT22;551;48.524;9.056;2023-04-06T13:20:38;26.30;1.00
506;DHT22;551;48.524;9.056;2023-04-06T13:23:04;25.90;1.00
506;DHT22;551;48.524;9.056;2023-04-06T13:25:30;26.00;1.00
506;DHT22;551;48.524;9.056;2023-04-06T13:27:58;25.70;1.00
506;DHT22;551;48.524;9.056;2023-04-06T13:30:24;24.60;1.00
506;DHT22;551;48.524;9.056;2023-04-06T13:32:50;23.70;1.00
506;DHT22;551;48.524;9.056;2023-04-06T13:35:16;22.70;1.00
506;DHT22;551;48.524;9.056;2023-04-06T13:37:42;22.00;1.00
506;DHT22;551;48.524;9.056;2023-04-06T13:40:08;21.40;1.00
506;DHT22;551;48.524;9.056;2023-04-06T13:42:34;21.20;1.00
506;DHT22;551;48.524;9.056;2023-04-06T13:45:01;20.90;1.00
506;DHT22;551;48.524;9.056;2023-04-06T13:47:26;20.80;1.00
506;DHT22;551;48.524;9.056;2023-04-06T13:49:52;20.60;1.00
506;DHT22;551;48.524;9.056;2023-04-06T13:52:18;20.40;1.00
506;DHT22;551;48.524;9.056;2023-04-06T13:54:49;20.30;1.00
506;DHT22;551;48.524;9.056;2023-04-06T13:57:15;20.20;1.00
506;DHT22;551;48.524;9.056;2023-04-06T13:59:40;20.10;1.00
506;DHT22;551;48.524;9.056;2023-04-06T14:02:07;20.20;1.00
506;DHT22;551;48.524;9.056;2023-04-06T14:04:34;20.20;1.00
506;DHT22;551;48.524;9.056;2023-04-06T14:07:00;20.10;1.00
506;DHT22;551;48.524;9.056;2023-04-06T14:09:27;19.80;1.00
506;DHT22;551;48.524;9.056;2023-04-06T14:11:53;19.90;1.00
506;DHT22;551;48.524;9.056;2023-04-06T14:14:19;19.80;1.00
506;DHT22;551;48.524;9.056;2023-04-06T14:16:46;19.90;1.00
506;DHT22;551;48.524;9.056;2023-04-06T14:19:14;19.90;1.00
506;DHT22;551;48.524;9.056;2023-04-06T14:21:41;19.80;1.00
506;DHT22;551;48.524;9.056;2023-04-06T14:24:07;19.70;1.00
506;DHT22;551;48.524;9.056;2023-04-06T14:26:34;19.80;1.00
506;DHT22;551;48.524;9.056;2023-04-06T14:29:00;19.60;1.00
506;DHT22;551;48.524;9.056;2023-04-06T14:31:26;19.50;1.00
506;DHT22;551;48.524;9.056;2023-04-06T14:33:52;19.30;1.00
506;DHT22;551;48.524;9.056;2023-04-06T14:36:18;19.20;1.00
506;DHT22;551;48.524;9.056;2023-04-06T14:38:45;19.20;1.00
506;DHT22;551;48.524;9.056;2023-04-06T14:41:23;19.10;1.00
506;DHT22;551;48.524;9.056;2023-04-06T14:43:48;19.00;1.00
506;DHT22;551;48.524;9.056;2023-04-06T14:46:14;19.00;1.00
506;DHT22;551;48.524;9.056;2023-04-06T14:48:43;19.00;1.00
506;DHT22;551;48.524;9.056;2023-04-06T14:51:09;18.90;1.00
506;DHT22;551;48.524;9.056;2023-04-06T14:53:35;18.70;1.00
506;DHT22;551;48.524;9.056;2023-04-06T14:56:00;18.40;1.00
506;DHT22;551;48.524;9.056;2023-04-06T14:58:26;18.50;1.00
506;DHT22;551;48.524;9.056;2023-04-06T15:00:56;18.30;1.00
506;DHT22;551;48.524;9.056;2023-04-06T15:03:23;18.20;1.00
506;DHT22;551;48.524;9.056;2023-04-06T15:05:51;18.00;1.00
506;DHT22;551;48.524;9.056;2023-04-06T15:08:16;17.90;1.00
506;DHT22;551;48.524;9.056;2023-04-06T15:10:42;17.90;1.00
506;DHT22;551;48.524;9.056;2023-04-06T15:13:08;17.90;1.00
506;DHT22;551;48.524;9.056;2023-04-06T15:15:33;17.80;1.00
506;DHT22;551;48.524;9.056;2023-04-06T15:17:59;17.70;1.00
506;DHT22;551;48.524;9.056;2023-04-06T15:20:27;17.70;1.00
506;DHT22;551;48.524;9.056;2023-04-06T15:22:53;17.80;1.00
506;DHT22;551;48.524;9.056;2023-04-06T15:25:18;17.70;1.00
506;DHT22;551;48.524;9.056;2023-04-06T15:27:44;17.70;1.00
506;DHT22;551;48.524;9.056;2023-04-06T15:30:10;17.60;1.00
506;DHT22;551;48.524;9.056;2023-04-06T15:32:36;17.60;1.00
506;DHT22;551;48.524;9.056;2023-04-06T15:35:09;17.60;1.00
506;DHT22;551;48.524;9.056;2023-04-06T15:37:36;17.60;1.00
506;DHT22;551;48.524;9.056;2023-04-06T15:40:02;17.60;1.00
506;DHT22;551;48.524;9.056;2023-04-06T15:42:28;17.60;1.00
506;DHT22;551;48.524;9.056;2023-04-06T15:44:53;17.50;1.00
506;DHT22;551;48.524;9.056;2023-04-06T15:47:19;17.30;1.00
506;DHT22;551;48.524;9.056;2023-04-06T15:49:44;17.20;1.00
506;DHT22;551;48.524;9.056;2023-04-06T15:52:10;17.00;1.00
506;DHT22;551;48.524;9.056;2023-04-06T15:54:35;17.00;1.00
506;DHT22;551;48.524;9.056;2023-04-06T15:57:06;17.30;1.00
506;DHT22;551;48.524;9.056;2023-04-06T15:59:31;17.20;1.00
506;DHT22;551;48.524;9.056;2023-04-06T16:01:57;17.00;1.00
506;DHT22;551;48.524;9.056;2023-04-06T16:04:23;16.80;1.00
506;DHT22;551;48.524;9.056;2023-04-06T16:06:49;16.70;1.00
506;DHT22;551;48.524;9.056;2023-04-06T16:09:15;16.80;1.00
506;DHT22;551;48.524;9.056;2023-04-06T16:11:40;16.60;1.00
506;DHT22;551;48.524;9.056;2023-04-06T16:14:06;16.50;1.00
506;DHT22;551;48.524;9.056;2023-04-06T16:16:32;16.50;1.00
506;DHT22;551;48.524;9.056;2023-04-06T16:18:57;16.40;1.00
506;DHT22;551;48.524;9.056;2023-04-06T16:21:23;16.30;1.00
506;DHT22;551;48.524;9.056;2023-04-06T16:23:48;16.40;1.00
506;DHT22;551;48.524;9.056;2023-04-06T16:26:15;16.30;1.00
506;DHT22;551;48.524;9.056;2023-04-06T16:28:44;16.40;1.00
506;DHT22;551;48.524;9.056;2023-04-06T16:31:20;16.30;1.00
506;DHT22;551;48.524;9.056;2023-04-06T16:33:51;16.20;1.00
506;DHT22;551;48.524;9.056;2023-04-06T16:36:23;15.80;1.00
506;DHT22;551;48.524;9.056;2023-04-06T16:38:50;15.90;1.00
506;DHT22;551;48.524;9.056;2023-04-06T16:41:16;15.80;1.00
506;DHT22;551;48.524;9.056;2023-04-06T16:43:41;15.70;1.00
506;DHT22;551;48.524;9.056;2023-04-06T16:46:07;15.70;1.00
506;DHT22;551;48.524;9.056;2023-04-06T16:48:33;15.60;1.00
506;DHT22;551;48.524;9.056;2023-04-06T16:51:05;15.40;1.00
506;DHT22;551;48.524;9.056;2023-04-06T16:53:31;15.30;1.00
506;DHT22;551;48.524;9.056;2023-04-06T16:55:56;15.20;1.00
506;DHT22;551;48.524;9.056;2023-04-06T16:58:22;15.10;1.00
506;DHT22;551;48.524;9.056;2023-04-06T17:00:47;15.10;1.00
506;DHT22;551;48.524;9.056;2023-04-06T17:03:13;15.00;1.00
506;DHT22;551;48.524;9.056;2023-04-06T17:05:38;15.00;1.00
506;DHT22;551;48.524;9.056;2023-04-06T17:08:05;14.90;1.00
506;DHT22;551;48.524;9.056;2023-04-06T17:10:31;14.70;1.00
506;DHT22;551;48.524;9.056;2023-04-06T17:12:56;14.70;1.00
506;DHT22;551;48.524;9.056;2023-04-06T17:15:22;14.50;1.00